Time;durP1;ratioP1;P1;durP2;ratioP2;P2;SDS_P1;SDS_P2;PMS_P1;PMS_P2;Temp;Humidity;BMP_temperature;BMP_pressure;BME280_temperature;BME280_humidity;BME280_pressure;Samples;Min_cycle;Max_cycle;Signal;HPM_P1;HPM_P2
2023/08/23 00:00:35;;;;;;;7.53;6.10;;;;;;;23.72;95.62;98450.78;4179386;28;20678;-86
2023/08/23 00:02:37;;;;;;;7.00;6.23;;;;;;;23.71;96.18;98448.31;4171756;28;20624;-87
2023/08/23 00:04:41;;;;;;;6.40;5.80;;;;;;;23.69;96.33;98450.28;4167019;28;20659;-86
2023/08/23 00:06:45;;;;;;;6.67;6.07;;;;;;;23.68;95.82;98440.66;4150671;28;20656;-86
2023/08/23 00:08:48;;;;;;;8.63;5.80;;;;;;;23.61;96.79;98442.34;4162721;28;20637;-86
2023/08/23 00:10:54;;;;;;;7.57;6.77;;;;;;;23.61;96.77;98441.50;4177369;28;21085;-86
2023/08/23 00:12:57;;;;;;;6.13;5.53;;;;;;;23.59;96.94;98436.34;4172124;28;20659;-87
2023/08/23 00:15:00;;;;;;;6.40;5.80;;;;;;;23.58;96.15;98440.03;4175266;28;20633;-86
2023/08/23 00:17:04;;;;;;;7.40;6.70;;;;;;;23.56;97.27;98439.38;4167335;28;21263;-86
2023/08/23 00:19:07;;;;;;;7.17;6.47;;;;;;;23.53;97.05;98434.41;4167882;28;21008;-86
2023/08/23 00:21:12;;;;;;;7.30;5.87;;;;;;;23.53;96.35;98442.38;4149060;28;21100;-86
2023/08/23 00:23:14;;;;;;;8.90;5.93;;;;;;;23.51;96.65;98446.22;4172877;28;20620;-86
2023/08/23 00:25:17;;;;;;;7.00;5.70;;;;;;;23.50;97.18;98456.06;4174225;28;20653;-86
2023/08/23 00:27:20;;;;;;;6.80;6.00;;;;;;;23.47;96.42;98447.56;4171767;28;20774;-87
2023/08/23 00:29:23;;;;;;;7.00;6.20;;;;;;;23.44;96.66;98451.44;4173099;28;20615;-86
2023/08/23 00:31:25;;;;;;;6.73;6.10;;;;;;;23.35;96.94;98439.16;4171746;28;20642;-86
2023/08/23 00:33:29;;;;;;;6.93;5.90;;;;;;;23.34;96.77;98437.50;4159167;28;21140;-86
2023/08/23 00:35:32;;;;;;;7.83;6.33;;;;;;;23.34;97.21;98442.81;4158212;28;20647;-86
2023/08/23 00:37:37;;;;;;;8.63;6.20;;;;;;;23.31;97.59;98442.34;4186017;28;20694;-86
2023/08/23 00:39:40;;;;;;;6.37;5.70;;;;;;;23.30;96.79;98444.19;4170939;28;20671;-87
2023/08/23 00:41:44;;;;;;;5.80;5.20;;;;;;;23.29;96.90;98437.22;4153316;28;20682;-86
2023/08/23 00:43:47;;;;;;;6.80;6.20;;;;;;;23.28;97.66;98430.22;4167545;28;20663;-87
2023/08/23 00:45:51;;;;;;;8.50;6.60;;;;;;;23.25;97.36;98424.41;4159240;28;21053;-86
2023/08/23 00:47:54;;;;;;;9.40;7.00;;;;;;;23.22;97.23;98430.91;4156264;28;21259;-86
2023/08/23 00:49:57;;;;;;;7.40;6.57;;;;;;;23.18;97.03;98431.44;4169064;28;20647;-86
2023/08/23 00:52:02;;;;;;;6.60;5.83;;;;;;;23.17;96.58;98427.13;4157163;28;21010;-86
2023/08/23 00:54:06;;;;;;;7.30;6.20;;;;;;;23.12;97.02;98423.31;4172943;28;20621;-87
2023/08/23 00:56:09;;;;;;;8.50;6.10;;;;;;;23.03;95.81;98429.69;4172190;28;20652;-86
2023/08/23 00:58:13;;;;;;;6.03;5.43;;;;;;;22.97;96.22;98427.72;4162179;28;20631;-86
2023/08/23 01:00:17;;;;;;;6.87;6.27;;;;;;;22.93;97.02;98435.22;4152865;28;20643;-86
2023/08/23 01:02:20;;;;;;;8.70;6.10;;;;;;;22.92;97.30;98433.53;4157822;28;20677;-86
2023/08/23 01:04:24;;;;;;;6.60;5.90;;;;;;;22.93;97.00;98435.22;4153723;28;20675;-86
2023/08/23 01:06:47;;;;;;;8.60;6.20;;;;;;;22.92;97.08;98432.69;4152711;28;20625;-86
2023/08/23 01:08:59;;;;;;;7.00;5.77;;;;;;;22.83;96.63;98434.56;4175547;28;20656;-86
2023/08/23 01:11:10;;;;;;;6.43;5.80;;;;;;;22.79;96.75;98443.03;4159566;28;20640;-86
2023/08/23 01:13:30;;;;;;;7.00;6.27;;;;;;;22.79;97.04;98438.59;4172837;28;20619;-86
2023/08/23 01:15:34;;;;;;;8.10;6.67;;;;;;;22.79;97.93;98440.38;4165554;28;20982;-86
2023/08/23 01:17:41;;;;;;;8.60;6.30;;;;;;;22.81;98.01;98441.06;4176384;28;20630;-87
2023/08/23 01:19:46;;;;;;;7.40;6.50;;;;;;;22.80;98.54;98447.38;4150422;28;21308;-86
2023/08/23 01:21:50;;;;;;;7.33;6.53;;;;;;;22.82;98.00;98443.56;4168898;28;20629;-86
2023/08/23 01:23:55;;;;;;;8.33;5.97;;;;;;;22.83;98.89;98447.03;4153622;28;21205;-86
2023/08/23 01:25:59;;;;;;;6.60;5.90;;;;;;;22.81;98.82;98444.53;4160484;28;20647;-86
2023/08/23 01:28:02;;;;;;;11.40;8.23;;;;;;;22.81;98.15;98443.72;4160387;28;20746;-86
2023/08/23 01:30:07;;;;;;;7.40;6.70;;;;;;;22.83;98.92;98447.03;4170436;28;20633;-86
2023/08/23 01:32:31;;;;;;;7.20;6.23;;;;;;;22.82;98.57;98440.03;4163096;28;20634;-86
2023/08/23 01:34:38;;;;;;;7.43;6.63;;;;;;;22.83;98.11;98447.03;4152190;28;20631;-86
2023/08/23 01:36:42;;;;;;;7.53;6.63;;;;;;;22.82;98.08;98442.72;4171454;28;20662;-86
2023/08/23 01:38:47;;;;;;;6.90;6.30;;;;;;;22.81;98.54;98451.72;4158595;28;20838;-86
2023/08/23 01:40:51;;;;;;;8.80;6.97;;;;;;;22.76;98.50;98435.41;4155246;28;20636;-86
2023/08/23 01:42:55;;;;;;;7.60;6.80;;;;;;;22.76;98.52;98443.38;4171133;28;21221;-86
2023/08/23 01:44:57;;;;;;;8.30;6.57;;;;;;;22.73;98.61;98439.25;4157649;28;21056;-86
2023/08/23 01:47:00;;;;;;;8.17;7.00;;;;;;;22.72;98.64;98442.91;4158545;28;20690;-86
2023/08/23 01:49:03;;;;;;;7.93;6.47;;;;;;;22.73;98.86;98443.72;4161921;28;20661;-86
2023/08/23 01:51:07;;;;;;;9.00;7.20;;;;;;;22.71;98.08;98440.44;4173205;28;20630;-86
2023/08/23 01:53:10;;;;;;;6.90;6.20;;;;;;;22.70;98.14;98443.25;4160910;28;21068;-92
2023/08/23 01:55:17;;;;;;;9.67;7.00;;;;;;;22.69;98.81;98442.44;4177171;28;20653;-86
2023/08/23 01:57:22;;;;;;;8.40;6.73;;;;;;;22.69;98.06;98441.59;4174842;28;20678;-87
2023/08/23 01:59:25;;;;;;;7.20;6.50;;;;;;;22.67;97.83;98449.75;4156917;28;21074;-86
2023/08/23 02:01:27;;;;;;;7.60;6.80;;;;;;;22.66;98.22;98436.59;4153864;28;20629;-86
2023/08/23 02:03:30;;;;;;;8.30;7.50;;;;;;;22.65;98.07;98443.75;4155569;28;20769;-86
2023/08/23 02:05:33;;;;;;;7.10;6.40;;;;;;;22.61;98.91;98431.78;4155240;28;20641;-86
2023/08/23 02:07:37;;;;;;;7.53;6.73;;;;;;;22.58;97.35;98433.97;4167826;28;20734;-86
2023/08/23 02:09:40;;;;;;;8.20;7.40;;;;;;;22.55;97.50;98437.84;4156775;28;20637;-86
2023/08/23 02:11:44;;;;;;;6.90;6.30;;;;;;;22.51;97.80;98436.50;4170377;28;20628;-86
2023/08/23 02:13:48;;;;;;;6.87;6.17;;;;;;;22.49;97.72;98446.50;4173031;28;20626;-86
2023/08/23 02:15:51;;;;;;;8.93;7.10;;;;;;;22.47;98.08;98453.78;4150723;28;20679;-86
2023/08/23 02:17:55;;;;;;;7.47;6.57;;;;;;;22.44;98.23;98451.47;4178023;28;21016;-86
2023/08/23 02:19:58;;;;;;;8.20;7.00;;;;;;;22.42;97.91;98445.50;4158782;28;20701;-86
2023/08/23 02:22:01;;;;;;;8.10;6.80;;;;;;;22.40;97.88;98447.50;4160712;28;20665;-86
2023/08/23 02:24:07;;;;;;;7.93;6.97;;;;;;;22.39;98.52;98443.16;4161536;28;21274;-86
2023/08/23 02:26:10;;;;;;;7.83;7.03;;;;;;;22.37;97.74;98442.53;4170084;28;21241;-87
2023/08/23 02:28:13;;;;;;;7.80;7.00;;;;;;;22.34;97.81;98447.31;4169650;28;20667;-86
2023/08/23 02:30:18;;;;;;;7.80;7.00;;;;;;;22.33;98.61;98448.34;4174322;28;20735;-86
2023/08/23 02:32:21;;;;;;;8.70;7.03;;;;;;;22.31;97.82;98451.16;4153666;28;21070;-86
2023/08/23 02:34:25;;;;;;;7.80;7.00;;;;;;;22.27;98.14;98441.84;4172727;28;20630;-86
2023/08/23 02:36:28;;;;;;;8.07;6.97;;;;;;;22.21;97.24;98435.56;4172959;28;20675;-86
2023/08/23 02:38:31;;;;;;;8.53;7.30;;;;;;;22.15;98.02;98436.22;4159081;28;20662;-86
2023/08/23 02:40:34;;;;;;;7.80;6.47;;;;;;;22.08;97.92;98435.22;4182428;28;20732;-87
2023/08/23 02:42:37;;;;;;;8.10;7.30;;;;;;;22.05;97.93;98438.19;4160574;28;20686;-87
2023/08/23 02:44:41;;;;;;;7.53;6.73;;;;;;;22.02;97.95;98433.22;4159966;28;20694;-87
2023/08/23 02:46:47;;;;;;;9.07;6.47;;;;;;;21.98;98.50;98437.19;4165792;28;20641;-86
2023/08/23 02:48:50;;;;;;;8.07;7.27;;;;;;;21.95;98.56;98441.03;4167318;28;20689;-86
2023/08/23 02:50:53;;;;;;;8.07;7.27;;;;;;;21.97;98.68;98440.88;4153448;28;20725;-86
2023/08/23 02:52:56;;;;;;;7.63;6.70;;;;;;;21.97;98.27;98436.38;4172448;28;20661;-86
2023/08/23 02:55:00;;;;;;;8.70;7.87;;;;;;;21.98;99.02;98439.84;4177870;28;20624;-86
2023/08/23 02:57:03;;;;;;;10.50;8.03;;;;;;;22.00;99.76;98432.56;4177637;28;20643;-87
2023/08/23 02:59:06;;;;;;;9.13;6.87;;;;;;;21.97;98.87;98431.06;4156631;28;20637;-86
2023/08/23 03:01:11;;;;;;;8.73;7.87;;;;;;;21.94;98.53;98427.91;4172852;28;20628;-86
2023/08/23 03:03:15;;;;;;;8.60;7.10;;;;;;;21.88;98.20;98437.38;4147851;28;20643;-93
2023/08/23 03:05:19;;;;;;;8.67;7.13;;;;;;;21.83;98.48;98429.06;4167489;28;20658;-92
2023/08/23 03:07:22;;;;;;;9.37;7.20;;;;;;;21.81;99.46;98438.19;4150999;28;20659;-92
2023/08/23 03:09:25;;;;;;;8.03;7.23;;;;;;;21.81;98.79;98440.84;4180625;28;21289;-92
2023/08/23 03:11:28;;;;;;;8.90;7.80;;;;;;;21.81;99.94;98430.22;4152999;28;20643;-92
2023/08/23 03:13:32;;;;;;;8.27;7.40;;;;;;;21.83;99.71;98436.19;4173823;28;20628;-90
2023/08/23 03:15:34;;;;;;;9.23;7.77;;;;;;;21.84;99.52;98440.53;4161470;28;20632;-92
2023/08/23 03:17:37;;;;;;;9.03;7.70;;;;;;;21.85;99.39;98444.84;4160299;28;20623;-91
2023/08/23 03:19:41;;;;;;;8.53;6.70;;;;;;;21.85;99.24;98445.66;4169924;28;20648;-92
2023/08/23 03:21:45;;;;;;;14.50;6.93;;;;;;;21.86;99.15;98441.19;4167546;28;20624;-92
2023/08/23 03:23:48;;;;;;;8.07;7.27;;;;;;;21.85;98.89;98444.84;4161557;28;21458;-93
2023/08/23 03:25:50;;;;;;;9.30;7.10;;;;;;;21.84;98.65;98445.84;4178778;28;20626;-92
2023/08/23 03:27:55;;;;;;;8.17;6.93;;;;;;;21.83;98.70;98447.66;4157866;28;20689;-93
2023/08/23 03:29:59;;;;;;;10.00;8.67;;;;;;;21.81;99.34;98443.50;4153747;28;21013;-89
2023/08/23 03:32:02;;;;;;;8.57;6.80;;;;;;;21.79;98.95;98445.50;4169514;28;21049;-92
2023/08/23 03:34:05;;;;;;;7.20;6.47;;;;;;;21.77;99.44;98442.19;4159831;28;20624;-92
2023/08/23 03:36:10;;;;;;;7.93;6.37;;;;;;;21.74;99.44;98441.69;4174148;28;20753;-91
2023/08/23 03:38:13;;;;;;;7.30;6.60;;;;;;;21.69;98.77;98433.38;4156712;28;20731;-92
2023/08/23 03:40:16;;;;;;;6.97;6.17;;;;;;;21.68;98.75;98437.03;4154328;28;20718;-91
2023/08/23 03:42:20;;;;;;;7.77;6.33;;;;;;;21.64;99.21;98430.41;4164252;28;20630;-92
2023/08/23 03:44:23;;;;;;;7.60;6.80;;;;;;;21.62;99.56;98427.91;4177393;28;20639;-91
2023/08/23 03:46:26;;;;;;;7.03;6.33;;;;;;;21.59;98.96;98425.59;4161565;28;20638;-93
2023/08/23 03:48:29;;;;;;;7.30;6.60;;;;;;;21.56;99.56;98428.56;4179231;28;20667;-92
2023/08/23 03:50:35;;;;;;;8.80;7.37;;;;;;;21.54;99.13;98425.22;4170576;28;21167;-92
2023/08/23 03:52:39;;;;;;;7.73;6.90;;;;;;;21.54;99.61;98421.75;4177393;28;20735;-92
2023/08/23 03:54:43;;;;;;;7.90;7.10;;;;;;;21.54;98.95;98424.41;4172906;28;20637;-93
2023/08/23 03:56:46;;;;;;;8.30;7.50;;;;;;;21.53;99.24;98420.94;4156913;28;21070;-92
2023/08/23 03:58:49;;;;;;;7.67;6.97;;;;;;;21.52;99.15;98415.78;4176169;28;20658;-92
2023/08/23 04:00:53;;;;;;;11.20;7.30;;;;;;;21.51;99.90;98422.06;4179187;28;20728;-92
2023/08/23 04:02:56;;;;;;;8.50;7.00;;;;;;;21.53;99.18;98417.41;4166379;28;21110;-93
2023/08/23 04:05:01;;;;;;;9.20;7.90;;;;;;;21.52;99.78;98421.91;4160386;28;21464;-89
2023/08/23 04:07:07;;;;;;;9.30;7.67;;;;;;;21.51;99.75;98424.72;4163917;28;21225;-91
2023/08/23 04:09:11;;;;;;;9.53;7.93;;;;;;;21.45;99.49;98415.59;4175565;28;21244;-93
2023/08/23 04:11:14;;;;;;;8.67;7.77;;;;;;;21.39;98.30;98416.22;4156890;28;20727;-92
2023/08/23 04:13:18;;;;;;;8.20;7.40;;;;;;;21.34;98.61;98418.53;4173303;28;20749;-93
2023/08/23 04:15:21;;;;;;;9.30;7.43;;;;;;;21.34;99.04;98417.72;4161289;28;20643;-92
2023/08/23 04:17:24;;;;;;;9.00;8.10;;;;;;;21.32;99.84;98428.50;4157032;28;21179;-93
2023/08/23 04:19:28;;;;;;;8.43;7.63;;;;;;;21.32;100.00;98420.53;4171430;28;20630;-92
2023/08/23 04:21:31;;;;;;;8.90;7.60;;;;;;;21.30;99.81;98424.31;4154054;28;20643;-93
2023/08/23 04:23:34;;;;;;;8.03;7.23;;;;;;;21.29;100.00;98426.16;4168177;28;20685;-93
2023/08/23 04:25:39;;;;;;;8.20;7.40;;;;;;;21.29;99.70;98435.94;4173363;28;20647;-92
2023/08/23 04:27:42;;;;;;;9.23;7.90;;;;;;;21.27;99.34;98438.78;4169641;28;20627;-92
2023/08/23 04:29:45;;;;;;;8.20;7.40;;;;;;;21.24;99.53;98438.25;4161392;28;20666;-92
2023/08/23 04:31:49;;;;;;;9.57;8.00;;;;;;;21.23;99.72;98441.06;4177837;28;20628;-92
2023/08/23 04:34:02;;;;;;;8.57;7.70;;;;;;;21.23;99.00;98441.06;4167220;28;20673;-91
2023/08/23 04:36:06;;;;;;;8.80;7.33;;;;;;;21.23;99.56;98443.72;4161606;28;20630;-92
2023/08/23 04:38:13;;;;;;;9.20;8.13;;;;;;;21.22;99.61;98450.84;4156523;28;21249;-92
2023/08/23 04:40:17;;;;;;;9.43;8.53;;;;;;;21.25;99.83;98441.75;4156209;28;21077;-92
2023/08/23 04:42:21;;;;;;;8.63;7.60;;;;;;;21.26;99.96;98448.69;4172915;28;20710;-92
2023/08/23 04:44:33;;;;;;;9.83;8.80;;;;;;;21.26;99.67;98449.53;4179807;28;20654;-92
2023/08/23 04:46:36;;;;;;;9.00;8.10;;;;;;;21.25;100.00;98455.84;4163452;28;20685;-93
2023/08/23 04:48:39;;;;;;;8.53;7.70;;;;;;;21.22;99.98;98458.00;4177826;28;20713;-92
2023/08/23 04:50:42;;;;;;;9.43;7.73;;;;;;;21.23;99.89;98457.84;4174551;28;20701;-91
2023/08/23 04:52:46;;;;;;;9.93;8.30;;;;;;;21.23;98.91;98459.63;4155732;28;20679;-93
2023/08/23 04:54:50;;;;;;;9.17;7.33;;;;;;;21.23;99.92;98463.13;4164765;28;20638;-92
2023/08/23 04:56:53;;;;;;;10.07;7.10;;;;;;;21.20;98.84;98465.25;4190545;28;20638;-93
2023/08/23 04:58:57;;;;;;;8.33;7.43;;;;;;;21.16;98.00;98463.94;4189981;28;20673;-92
2023/08/23 05:01:03;;;;;;;8.13;7.33;;;;;;;21.13;99.60;98466.91;4160608;28;20677;-91
2023/08/23 05:03:08;;;;;;;9.33;7.37;;;;;;;21.11;98.54;98469.72;4159257;28;20718;-90
2023/08/23 05:05:11;;;;;;;8.33;7.37;;;;;;;21.15;99.30;98470.22;4153784;28;20666;-93
2023/08/23 05:07:14;;;;;;;9.83;7.57;;;;;;;21.20;100.00;98465.25;4171377;28;20626;-92
2023/08/23 05:09:18;;;;;;;9.23;7.40;;;;;;;21.24;100.00;98467.44;4157704;28;20658;-90
2023/08/23 05:11:20;;;;;;;9.23;7.47;;;;;;;21.26;99.91;98462.81;4178738;28;21120;-93
2023/08/23 05:13:24;;;;;;;8.73;6.80;;;;;;;21.31;100.00;98465.81;4178634;28;20643;-92
2023/08/23 05:15:29;;;;;;;8.70;7.83;;;;;;;21.35;100.00;98472.47;4156099;28;20640;-90
2023/08/23 05:17:34;;;;;;;8.43;7.63;;;;;;;21.42;100.00;98463.69;4162331;28;20689;-91
2023/08/23 05:19:41;;;;;;;10.20;9.10;;;;;;;21.54;100.00;98466.88;4170029;28;20627;-92
2023/08/23 05:21:44;;;;;;;8.80;7.90;;;;;;;21.65;100.00;98467.41;4156308;28;20623;-92
2023/08/23 05:23:47;;;;;;;8.87;7.97;;;;;;;21.81;99.77;98470.06;4162568;28;20682;-87
2023/08/23 05:25:51;;;;;;;9.93;7.67;;;;;;;21.95;99.08;98472.91;4179358;28;20725;-86
2023/08/23 05:27:53;;;;;;;9.97;7.77;;;;;;;22.12;98.96;98477.22;4161261;28;21266;-87
2023/08/23 05:29:59;;;;;;;8.67;7.43;;;;;;;22.27;97.49;98479.06;4174141;28;20662;-86
2023/08/23 05:32:04;;;;;;;8.23;7.20;;;;;;;22.47;96.65;98480.38;4157178;28;20636;-86
2023/08/23 05:34:08;;;;;;;10.33;7.37;;;;;;;22.64;96.15;98482.00;4174922;28;21210;-87
2023/08/23 05:36:11;;;;;;;8.63;7.73;;;;;;;22.79;95.35;98477.63;4154193;28;20639;-86
2023/08/23 05:38:14;;;;;;;8.37;7.07;;;;;;;22.93;95.27;98484.94;4155008;28;20656;-87
2023/08/23 05:40:17;;;;;;;8.67;7.40;;;;;;;23.09;93.88;98485.72;4169917;28;20628;-87
2023/08/23 05:42:20;;;;;;;8.23;7.43;;;;;;;23.23;93.80;98485.00;4160068;28;20629;-87
2023/08/23 05:44:23;;;;;;;9.77;8.00;;;;;;;23.36;92.52;98483.44;4165649;28;21010;-87
2023/08/23 05:46:26;;;;;;;8.33;7.53;;;;;;;23.51;91.10;98492.34;4162134;28;20658;-87
2023/08/23 05:48:34;;;;;;;8.63;7.70;;;;;;;23.66;90.64;98498.59;4157709;28;20633;-87
2023/08/23 05:50:38;;;;;;;8.30;7.50;;;;;;;23.81;90.59;98491.50;4177116;28;20667;-87
2023/08/23 05:52:42;;;;;;;9.47;8.23;;;;;;;23.97;89.22;98492.25;4173377;28;20701;-87
2023/08/23 05:54:45;;;;;;;9.40;8.07;;;;;;;24.13;90.09;98489.47;4169637;28;20643;-87
2023/08/23 05:56:48;;;;;;;8.50;7.50;;;;;;;24.28;88.75;98492.97;4168695;28;20636;-87
2023/08/23 05:58:51;;;;;;;8.70;7.90;;;;;;;24.33;87.19;98491.47;4177850;28;20637;-87
2023/08/23 06:00:56;;;;;;;8.50;7.70;;;;;;;24.44;87.74;98492.88;4175145;28;20658;-87
2023/08/23 06:02:59;;;;;;;8.00;7.20;;;;;;;24.60;88.07;98490.88;4161767;28;20645;-86
2023/08/23 06:05:05;;;;;;;7.60;6.90;;;;;;;24.80;87.51;98510.69;4169828;28;20667;-87
2023/08/23 06:07:08;;;;;;;10.30;7.40;;;;;;;24.95;86.41;98506.19;4169747;28;20630;-87
2023/08/23 06:09:11;;;;;;;8.90;8.10;;;;;;;25.09;86.65;98508.06;4173486;28;21418;-87
2023/08/23 06:11:15;;;;;;;7.17;6.40;;;;;;;25.23;86.43;98510.75;4173824;28;20654;-87
2023/08/23 06:13:18;;;;;;;8.03;7.23;;;;;;;25.30;85.09;98512.47;4166667;28;20707;-87
2023/08/23 06:15:21;;;;;;;10.07;6.73;;;;;;;25.37;84.88;98510.72;4168848;28;20761;-86
2023/08/23 06:17:26;;;;;;;7.87;7.07;;;;;;;25.50;85.63;98508.22;4157108;28;21094;-87
2023/08/23 06:19:29;;;;;;;8.40;7.60;;;;;;;25.62;84.01;98507.53;4167828;28;21292;-87
2023/08/23 06:21:34;;;;;;;7.70;6.90;;;;;;;25.69;83.48;98512.97;4157946;28;20626;-87
2023/08/23 06:23:43;;;;;;;8.03;7.23;;;;;;;25.77;84.27;98511.03;4161205;28;20731;-87
2023/08/23 06:25:46;;;;;;;7.70;7.00;;;;;;;25.94;83.79;98506.28;4168274;28;21190;-87
2023/08/23 06:27:49;;;;;;;7.47;6.77;;;;;;;26.06;83.36;98505.56;4161887;28;20688;-87
2023/08/23 06:29:53;;;;;;;7.67;7.00;;;;;;;26.21;84.36;98509.00;4173549;28;20645;-86
2023/08/23 06:31:56;;;;;;;7.57;6.87;;;;;;;26.34;82.61;98514.50;4153721;28;20619;-87
2023/08/23 06:33:59;;;;;;;7.73;7.03;;;;;;;26.46;82.41;98519.16;4171568;28;21207;-87
2023/08/23 06:36:05;;;;;;;7.50;6.80;;;;;;;26.59;82.96;98513.91;4172506;28;20673;-87
2023/08/23 06:38:11;;;;;;;9.93;7.80;;;;;;;26.70;82.71;98505.31;4175875;28;20655;-87
2023/08/23 06:40:16;;;;;;;8.17;7.37;;;;;;;26.78;82.31;98511.38;4158708;28;20698;-86
2023/08/23 06:42:19;;;;;;;10.50;7.70;;;;;;;26.92;82.67;98510.47;4174086;28;20679;-86
2023/08/23 06:44:23;;;;;;;9.17;7.77;;;;;;;27.06;82.54;98509.53;4173475;28;20636;-86
2023/08/23 06:46:26;;;;;;;8.77;7.87;;;;;;;27.18;81.89;98515.97;4177849;28;20653;-86
2023/08/23 06:48:29;;;;;;;7.70;7.00;;;;;;;27.34;81.00;98513.81;4157755;28;21022;-86
2023/08/23 06:50:33;;;;;;;8.77;7.90;;;;;;;27.49;79.95;98505.63;4177171;28;20789;-86
2023/08/23 06:52:35;;;;;;;7.73;7.03;;;;;;;27.57;79.83;98496.44;4170555;28;20691;-86
2023/08/23 06:54:39;;;;;;;7.83;7.03;;;;;;;27.66;79.64;98500.59;4153285;28;20660;-87
2023/08/23 06:56:42;;;;;;;8.50;7.70;;;;;;;27.79;79.40;98494.44;4151891;28;20662;-87
2023/08/23 06:58:46;;;;;;;8.30;7.50;;;;;;;27.88;78.39;98487.84;4171747;28;20635;-86
2023/08/23 07:00:49;;;;;;;9.70;8.67;;;;;;;27.98;79.99;98493.63;4157179;28;20624;-86
2023/08/23 07:02:52;;;;;;;9.53;8.47;;;;;;;28.05;78.87;98495.31;4164204;28;20714;-86
2023/08/23 07:04:55;;;;;;;8.07;7.27;;;;;;;28.11;78.59;98498.03;4178561;28;21042;-86
2023/08/23 07:06:58;;;;;;;9.53;8.50;;;;;;;28.19;79.27;98499.69;4169977;28;20995;-86
2023/08/23 07:09:01;;;;;;;9.60;8.63;;;;;;;28.31;79.49;98493.53;4169002;28;20644;-87
2023/08/23 07:11:06;;;;;;;8.33;7.43;;;;;;;28.42;78.03;98500.97;4176150;28;20659;-86
2023/08/23 07:13:09;;;;;;;7.97;7.27;;;;;;;28.48;76.43;98496.59;4176479;28;20660;-87
2023/08/23 07:15:12;;;;;;;8.50;7.47;;;;;;;28.47;77.82;98497.66;4172488;28;20630;-87
2023/08/23 07:17:15;;;;;;;8.17;7.40;;;;;;;28.57;77.12;98502.41;4172782;28;21211;-87
2023/08/23 07:19:18;;;;;;;8.73;7.20;;;;;;;28.50;77.13;98498.06;4152694;28;20657;-87
2023/08/23 07:21:21;;;;;;;8.17;7.40;;;;;;;28.41;78.69;98501.97;4156070;28;20654;-87
2023/08/23 07:23:25;;;;;;;7.83;7.10;;;;;;;28.48;79.27;98493.91;4175286;28;20629;-86
2023/08/23 07:25:28;;;;;;;8.73;7.47;;;;;;;28.66;77.18;98497.66;4161819;28;20630;-86
2023/08/23 07:27:37;;;;;;;9.57;7.67;;;;;;;28.76;76.59;98506.13;4178695;28;20720;-87
2023/08/23 07:29:39;;;;;;;10.33;8.20;;;;;;;28.84;76.15;98509.44;4151319;28;20637;-87
2023/08/23 07:31:42;;;;;;;8.10;7.40;;;;;;;28.95;76.13;98505.31;4162607;28;20690;-87
2023/08/23 07:33:46;;;;;;;12.93;7.40;;;;;;;29.08;76.44;98506.91;4167189;28;20745;-86
2023/08/23 07:35:54;;;;;;;9.10;7.70;;;;;;;29.17;74.02;98511.03;4168031;28;20627;-87
2023/08/23 07:37:58;;;;;;;8.23;7.10;;;;;;;29.18;74.73;98501.09;4168181;28;21230;-86
2023/08/23 07:40:01;;;;;;;9.80;7.33;;;;;;;29.24;74.84;98503.78;4161952;28;20650;-87
2023/08/23 07:42:04;;;;;;;8.00;7.20;;;;;;;29.40;72.83;98503.34;4172783;28;20644;-87
2023/08/23 07:44:09;;;;;;;8.03;6.93;;;;;;;29.53;72.11;98506.00;4162157;28;20626;-87
2023/08/23 07:46:12;;;;;;;9.70;6.50;;;;;;;29.61;70.49;98498.50;4176349;28;20735;-87
2023/08/23 07:48:15;;;;;;;7.17;6.47;;;;;;;29.66;70.47;98504.03;4182869;28;20620;-86
2023/08/23 07:50:18;;;;;;;7.70;6.73;;;;;;;29.75;69.54;98504.63;4183351;28;20790;-86
2023/08/23 07:52:22;;;;;;;8.00;7.20;;;;;;;29.86;71.30;98501.28;4150931;28;21227;-86
2023/08/23 07:54:25;;;;;;;7.33;6.20;;;;;;;30.06;72.54;98502.84;4162316;28;20639;-87
2023/08/23 07:56:28;;;;;;;7.63;6.80;;;;;;;30.23;71.69;98502.09;4157782;28;20729;-87
2023/08/23 07:58:31;;;;;;;7.20;6.50;;;;;;;30.24;69.77;98511.84;4170385;28;21008;-87
2023/08/23 08:00:36;;;;;;;6.77;6.17;;;;;;;30.31;69.79;98507.25;4158576;28;21077;-86
2023/08/23 08:02:40;;;;;;;8.73;6.60;;;;;;;30.40;70.03;98508.66;4170248;28;20684;-86
2023/08/23 08:04:45;;;;;;;6.73;6.13;;;;;;;30.53;70.50;98503.16;4155295;28;20765;-86
2023/08/23 08:06:48;;;;;;;6.80;5.97;;;;;;;30.55;69.81;98503.75;4172532;28;20639;-87
2023/08/23 08:08:51;;;;;;;7.00;6.37;;;;;;;30.58;69.83;98506.00;4159865;28;20688;-86
2023/08/23 08:10:53;;;;;;;7.53;6.70;;;;;;;30.55;69.41;98503.75;4161814;28;20628;-87
2023/08/23 08:12:58;;;;;;;7.37;6.67;;;;;;;30.57;71.20;98507.06;4170757;28;20651;-87
2023/08/23 08:15:05;;;;;;;7.17;6.47;;;;;;;30.64;70.59;98503.28;4151728;28;20695;-86
2023/08/23 08:17:10;;;;;;;7.57;6.87;;;;;;;30.74;70.13;98510.84;4155263;28;20628;-86
2023/08/23 08:19:13;;;;;;;7.47;6.67;;;;;;;30.87;72.02;98508.03;4167308;28;20628;-86
2023/08/23 08:21:17;;;;;;;7.33;6.60;;;;;;;30.98;69.29;98513.56;4170937;28;20662;-87
2023/08/23 08:23:20;;;;;;;6.90;6.17;;;;;;;31.03;69.08;98513.69;4155242;28;20707;-86
2023/08/23 08:25:23;;;;;;;9.50;6.33;;;;;;;31.04;69.59;98516.19;4168584;28;20636;-86
2023/08/23 08:27:27;;;;;;;8.33;6.90;;;;;;;31.14;69.32;98504.91;4171884;28;20988;-86
2023/08/23 08:29:30;;;;;;;7.07;6.17;;;;;;;31.11;67.71;98498.06;4172542;28;20640;-86
2023/08/23 08:31:33;;;;;;;6.90;6.20;;;;;;;31.23;70.87;98507.06;4155817;28;20661;-87
2023/08/23 08:33:38;;;;;;;6.40;5.80;;;;;;;31.33;68.10;98509.25;4171408;28;20606;-87
2023/08/23 08:35:41;;;;;;;7.53;6.83;;;;;;;31.34;69.08;98500.91;4174040;28;20680;-87
2023/08/23 08:37:44;;;;;;;7.13;6.50;;;;;;;31.33;69.10;98504.66;4178733;28;20635;-86
2023/08/23 08:39:48;;;;;;;8.03;6.83;;;;;;;31.35;69.37;98507.13;4173563;28;20667;-86
2023/08/23 08:41:52;;;;;;;12.10;6.50;;;;;;;31.43;68.51;98491.50;4176487;28;20668;-87
2023/08/23 08:43:55;;;;;;;7.63;6.10;;;;;;;31.56;69.08;98485.97;4156756;28;20713;-86
2023/08/23 08:45:58;;;;;;;6.60;6.00;;;;;;;31.69;67.76;98489.28;4179623;28;21225;-87
2023/08/23 08:48:01;;;;;;;6.30;5.80;;;;;;;31.74;68.98;98494.84;4153163;28;20633;-86
2023/08/23 08:50:06;;;;;;;6.10;5.50;;;;;;;31.82;67.20;98488.31;4173111;28;20625;-86
2023/08/23 08:52:13;;;;;;;6.00;5.50;;;;;;;31.88;67.34;98494.44;4163019;28;20661;-87
2023/08/23 08:54:17;;;;;;;5.80;5.30;;;;;;;31.96;66.51;98491.44;4162921;28;21216;-92
2023/08/23 08:56:21;;;;;;;6.23;5.63;;;;;;;32.00;65.06;98489.13;4169795;28;20660;-91
2023/08/23 08:58:29;;;;;;;7.43;6.50;;;;;;;32.06;66.72;98482.81;4168128;28;21013;-91
2023/08/23 09:00:33;;;;;;;6.30;5.70;;;;;;;32.03;65.37;98488.66;4168727;28;20672;-91
2023/08/23 09:02:37;;;;;;;7.10;5.83;;;;;;;32.07;65.90;98487.97;4153871;28;20700;-92
2023/08/23 09:04:41;;;;;;;6.17;5.67;;;;;;;32.09;66.00;98480.47;4168129;28;20657;-91
2023/08/23 09:06:49;;;;;;;6.30;5.70;;;;;;;32.20;67.31;98495.06;4179524;28;20613;-92
2023/08/23 09:08:52;;;;;;;7.30;6.20;;;;;;;32.24;67.14;98497.06;4156036;28;21292;-91
2023/08/23 09:10:55;;;;;;;7.97;6.47;;;;;;;32.27;66.74;98493.09;4169248;28;21223;-91
2023/08/23 09:12:58;;;;;;;6.73;6.20;;;;;;;32.42;67.03;98497.00;4168300;28;20653;-92
2023/08/23 09:15:05;;;;;;;6.77;6.17;;;;;;;32.53;64.31;98498.94;4171601;28;20728;-91
2023/08/23 09:17:08;;;;;;;6.53;5.83;;;;;;;32.57;64.06;98500.94;4176450;28;20611;-91
2023/08/23 09:19:12;;;;;;;6.03;5.53;;;;;;;32.55;63.73;98504.91;4169484;28;21026;-91
2023/08/23 09:21:15;;;;;;;6.63;6.00;;;;;;;32.31;63.11;98489.69;4167446;28;20632;-92
2023/08/23 09:23:20;;;;;;;6.40;5.80;;;;;;;32.04;64.53;98493.00;4175021;28;20768;-91
2023/08/23 09:25:24;;;;;;;6.73;6.13;;;;;;;31.96;68.06;98494.13;4161708;28;20720;-92
2023/08/23 09:27:27;;;;;;;6.67;5.90;;;;;;;31.95;63.69;98489.81;4177944;28;20624;-92
2023/08/23 09:29:40;;;;;;;7.83;5.97;;;;;;;31.96;63.81;98490.63;4149459;28;20656;-92
2023/08/23 09:31:43;;;;;;;6.83;6.13;;;;;;;32.14;66.19;98496.78;4170017;28;20651;-92
2023/08/23 09:33:46;;;;;;;6.40;5.80;;;;;;;32.24;64.56;98491.66;4171540;28;20687;-91
2023/08/23 09:35:50;;;;;;;6.77;6.07;;;;;;;32.24;62.58;98488.97;4169497;28;20640;-92
2023/08/23 09:37:53;;;;;;;6.43;5.83;;;;;;;32.17;63.49;98484.72;4173750;28;20653;-91
2023/08/23 09:39:57;;;;;;;5.97;5.47;;;;;;;32.07;62.49;98490.69;4171578;28;20637;-92
2023/08/23 09:42:04;;;;;;;6.63;6.10;;;;;;;32.02;62.50;98485.13;4156287;28;20626;-91